sensor_id;sensor_type;location;lat;lon;timestamp;temperature;humidity
73509;SHT30;61750;55.036;73.312;2022-11-15T00:01:16;2.26;89.08
73509;SHT30;61750;55.036;73.312;2022-11-15T00:04:01;2.24;89.12
73509;SHT30;61750;55.036;73.312;2022-11-15T00:06:46;2.29;89.24
73509;SHT30;61750;55.036;73.312;2022-11-15T00:09:30;2.29;89.16
73509;SHT30;61750;55.036;73.312;2022-11-15T00:12:15;2.30;89.23
73509;SHT30;61750;55.036;73.312;2022-11-15T00:19:40;2.31;89.31
73509;SHT30;61750;55.036;73.312;2022-11-15T00:22:34;2.30;89.25
73509;SHT30;61750;55.036;73.312;2022-11-15T00:30:02;2.31;89.35
73509;SHT30;61750;55.036;73.312;2022-11-15T00:32:47;2.31;89.47
73509;SHT30;61750;55.036;73.312;2022-11-15T00:44:49;2.27;89.31
73509;SHT30;61750;55.036;73.312;2022-11-15T00:47:33;2.34;89.48
73509;SHT30;61750;55.036;73.312;2022-11-15T00:50:18;2.34;89.37
73509;SHT30;61750;55.036;73.312;2022-11-15T00:53:03;2.36;89.16
73509;SHT30;61750;55.036;73.312;2022-11-15T00:56:13;2.36;89.15
73509;SHT30;61750;55.036;73.312;2022-11-15T00:58:57;2.33;89.06
73509;SHT30;61750;55.036;73.312;2022-11-15T01:01:42;2.37;89.16
73509;SHT30;61750;55.036;73.312;2022-11-15T01:04:26;2.36;88.86
73509;SHT30;61750;55.036;73.312;2022-11-15T01:07:11;2.37;89.00
73509;SHT30;61750;55.036;73.312;2022-11-15T01:09:56;2.40;88.89
73509;SHT30;61750;55.036;73.312;2022-11-15T01:12:40;2.38;88.73
73509;SHT30;61750;55.036;73.312;2022-11-15T01:20:16;2.38;88.77
73509;SHT30;61750;55.036;73.312;2022-11-15T01:23:05;2.34;88.66
73509;SHT30;61750;55.036;73.312;2022-11-15T01:30:21;2.36;88.76
73509;SHT30;61750;55.036;73.312;2022-11-15T01:33:05;2.36;88.90
73509;SHT30;61750;55.036;73.312;2022-11-15T01:40:31;2.34;88.75
73509;SHT30;61750;55.036;73.312;2022-11-15T01:43:20;2.36;88.82
73509;SHT30;61750;55.036;73.312;2022-11-15T01:46:19;2.29;88.81
73509;SHT30;61750;55.036;73.312;2022-11-15T01:49:12;2.26;89.03
73509;SHT30;61750;55.036;73.312;2022-11-15T01:51:58;2.24;89.23
73509;SHT30;61750;55.036;73.312;2022-11-15T01:54:45;2.20;89.38
73509;SHT30;61750;55.036;73.312;2022-11-15T01:57:30;2.14;89.47
73509;SHT30;61750;55.036;73.312;2022-11-15T02:00:15;2.13;89.64
73509;SHT30;61750;55.036;73.312;2022-11-15T02:03:01;2.13;89.67
73509;SHT30;61750;55.036;73.312;2022-11-15T02:06:12;2.17;89.89
73509;SHT30;61750;55.036;73.312;2022-11-15T02:09:07;2.14;89.73
73509;SHT30;61750;55.036;73.312;2022-11-15T02:11:54;2.13;89.85
73509;SHT30;61750;55.036;73.312;2022-11-15T02:14:40;2.14;89.91
73509;SHT30;61750;55.036;73.312;2022-11-15T02:20:54;2.20;89.95
73509;SHT30;61750;55.036;73.312;2022-11-15T02:23:59;2.21;89.70
73509;SHT30;61750;55.036;73.312;2022-11-15T02:30:14;2.20;89.43
73509;SHT30;61750;55.036;73.312;2022-11-15T02:36:18;2.24;89.27
73509;SHT30;61750;55.036;73.312;2022-11-15T02:42:41;2.27;88.94
73509;SHT30;61750;55.036;73.312;2022-11-15T02:49:53;2.24;88.85
73509;SHT30;61750;55.036;73.312;2022-11-15T02:52:38;2.27;89.08
73509;SHT30;61750;55.036;73.312;2022-11-15T03:00:04;2.31;88.92
73509;SHT30;61750;55.036;73.312;2022-11-15T03:13:05;2.37;88.30
73509;SHT30;61750;55.036;73.312;2022-11-15T03:16:24;2.41;88.31
73509;SHT30;61750;55.036;73.312;2022-11-15T03:19:29;2.41;88.10
73509;SHT30;61750;55.036;73.312;2022-11-15T03:22:26;2.42;88.11
73509;SHT30;61750;55.036;73.312;2022-11-15T03:29:44;2.41;87.92
73509;SHT30;61750;55.036;73.312;2022-11-15T03:32:33;2.44;87.67
73509;SHT30;61750;55.036;73.312;2022-11-15T03:40:01;2.48;87.87
73509;SHT30;61750;55.036;73.312;2022-11-15T03:43:00;2.54;87.70
73509;SHT30;61750;55.036;73.312;2022-11-15T03:49:49;2.68;87.74
73509;SHT30;61750;55.036;73.312;2022-11-15T03:52:35;2.77;87.52
73509;SHT30;61750;55.036;73.312;2022-11-15T04:00:05;2.87;87.08
73509;SHT30;61750;55.036;73.312;2022-11-15T04:02:54;2.92;87.15
73509;SHT30;61750;55.036;73.312;2022-11-15T04:15:11;2.88;86.89
73509;SHT30;61750;55.036;73.312;2022-11-15T04:17:57;2.78;86.96
73509;SHT30;61750;55.036;73.312;2022-11-15T04:20:45;2.78;87.04
73509;SHT30;61750;55.036;73.312;2022-11-15T04:23:58;2.75;87.40
73509;SHT30;61750;55.036;73.312;2022-11-15T04:26:48;2.78;87.04
73509;SHT30;61750;55.036;73.312;2022-11-15T04:29:52;2.85;87.18
73509;SHT30;61750;55.036;73.312;2022-11-15T04:32:56;2.87;86.80
73509;SHT30;61750;55.036;73.312;2022-11-15T04:36:12;2.89;86.76
73509;SHT30;61750;55.036;73.312;2022-11-15T04:39:34;2.87;87.01
73509;SHT30;61750;55.036;73.312;2022-11-15T04:42:40;2.84;87.21
73509;SHT30;61750;55.036;73.312;2022-11-15T04:50:01;2.91;87.39
73509;SHT30;61750;55.036;73.312;2022-11-15T04:52:51;2.87;87.09
73509;SHT30;61750;55.036;73.312;2022-11-15T04:59:51;2.84;87.17
73509;SHT30;61750;55.036;73.312;2022-11-15T05:02:37;2.88;87.13
73509;SHT30;61750;55.036;73.312;2022-11-15T05:09:48;2.96;86.76
73509;SHT30;61750;55.036;73.312;2022-11-15T05:12:42;2.99;86.49
73509;SHT30;61750;55.036;73.312;2022-11-15T05:19:51;2.95;86.04
73509;SHT30;61750;55.036;73.312;2022-11-15T05:22:41;3.04;86.24
73509;SHT30;61750;55.036;73.312;2022-11-15T05:29:48;2.96;85.84
73509;SHT30;61750;55.036;73.312;2022-11-15T05:32:37;3.01;85.94
73509;SHT30;61750;55.036;73.312;2022-11-15T05:40:13;2.96;85.61
73509;SHT30;61750;55.036;73.312;2022-11-15T05:42:57;3.04;85.93
73509;SHT30;61750;55.036;73.312;2022-11-15T05:49:44;3.08;85.25
73509;SHT30;61750;55.036;73.312;2022-11-15T05:52:31;3.13;85.03
73509;SHT30;61750;55.036;73.312;2022-11-15T05:59:43;3.09;84.62
73509;SHT30;61750;55.036;73.312;2022-11-15T06:02:33;2.99;84.79
73509;SHT30;61750;55.036;73.312;2022-11-15T06:05:17;2.99;85.02
73509;SHT30;61750;55.036;73.312;2022-11-15T06:08:02;3.01;84.89
73509;SHT30;61750;55.036;73.312;2022-11-15T06:11:13;3.09;84.53
73509;SHT30;61750;55.036;73.312;2022-11-15T06:13:59;3.13;84.36
73509;SHT30;61750;55.036;73.312;2022-11-15T06:16:44;3.19;84.60
73509;SHT30;61750;55.036;73.312;2022-11-15T06:19:28;3.32;84.79
73509;SHT30;61750;55.036;73.312;2022-11-15T06:22:16;3.25;83.77
73509;SHT30;61750;55.036;73.312;2022-11-15T06:25:01;3.26;84.15
73509;SHT30;61750;55.036;73.312;2022-11-15T06:27:52;3.29;84.29
73509;SHT30;61750;55.036;73.312;2022-11-15T06:31:12;3.37;84.68
73509;SHT30;61750;55.036;73.312;2022-11-15T06:33:57;3.40;83.89
73509;SHT30;61750;55.036;73.312;2022-11-15T06:36:42;3.47;83.94
73509;SHT30;61750;55.036;73.312;2022-11-15T06:39:32;3.55;84.25
73509;SHT30;61750;55.036;73.312;2022-11-15T06:42:16;3.60;84.34
73509;SHT30;61750;55.036;73.312;2022-11-15T06:45:01;3.63;84.11
73509;SHT30;61750;55.036;73.312;2022-11-15T06:47:51;3.50;83.81
73509;SHT30;61750;55.036;73.312;2022-11-15T06:54:56;3.36;84.30
73509;SHT30;61750;55.036;73.312;2022-11-15T06:57:51;3.29;84.35
73509;SHT30;61750;55.036;73.312;2022-11-15T07:01:12;3.26;85.13
73509;SHT30;61750;55.036;73.312;2022-11-15T07:03:57;3.25;84.93
73509;SHT30;61750;55.036;73.312;2022-11-15T07:06:42;3.22;85.00
73509;SHT30;61750;55.036;73.312;2022-11-15T07:16:36;2.75;86.81
73509;SHT30;61750;55.036;73.312;2022-11-15T07:24:11;3.04;85.50
73509;SHT30;61750;55.036;73.312;2022-11-15T07:31:07;3.06;84.74
73509;SHT30;61750;55.036;73.312;2022-11-15T07:33:52;3.05;85.47
73509;SHT30;61750;55.036;73.312;2022-11-15T07:36:36;3.11;85.71
73509;SHT30;61750;55.036;73.312;2022-11-15T07:39:37;3.16;86.12
73509;SHT30;61750;55.036;73.312;2022-11-15T07:42:33;3.12;85.51
73509;SHT30;61750;55.036;73.312;2022-11-15T07:45:46;3.13;85.42
73509;SHT30;61750;55.036;73.312;2022-11-15T07:48:30;3.11;85.25
73509;SHT30;61750;55.036;73.312;2022-11-15T07:51:16;3.09;85.55
73509;SHT30;61750;55.036;73.312;2022-11-15T07:54:11;3.04;85.71
73509;SHT30;61750;55.036;73.312;2022-11-15T07:57:00;3.08;86.36
73509;SHT30;61750;55.036;73.312;2022-11-15T07:59:50;3.05;85.63
73509;SHT30;61750;55.036;73.312;2022-11-15T08:02:39;3.02;85.51
73509;SHT30;61750;55.036;73.312;2022-11-15T08:05:24;2.98;85.74
73509;SHT30;61750;55.036;73.312;2022-11-15T08:08:13;2.95;85.79
73509;SHT30;61750;55.036;73.312;2022-11-15T08:10:58;2.91;85.37
73509;SHT30;61750;55.036;73.312;2022-11-15T08:13:53;2.94;85.82
73509;SHT30;61750;55.036;73.312;2022-11-15T08:16:48;2.96;86.17
73509;SHT30;61750;55.036;73.312;2022-11-15T08:19:37;2.99;85.93
73509;SHT30;61750;55.036;73.312;2022-11-15T08:22:22;3.02;85.81
73509;SHT30;61750;55.036;73.312;2022-11-15T08:25:07;2.95;85.69
73509;SHT30;61750;55.036;73.312;2022-11-15T08:32:33;2.99;85.89
73509;SHT30;61750;55.036;73.312;2022-11-15T08:35:28;2.94;85.94
73509;SHT30;61750;55.036;73.312;2022-11-15T08:38:23;2.88;86.43
73509;SHT30;61750;55.036;73.312;2022-11-15T08:41:22;2.87;86.61
73509;SHT30;61750;55.036;73.312;2022-11-15T08:48:20;2.92;86.55
73509;SHT30;61750;55.036;73.312;2022-11-15T08:51:04;2.85;86.15
73509;SHT30;61750;55.036;73.312;2022-11-15T08:53:49;2.84;86.34
73509;SHT30;61750;55.036;73.312;2022-11-15T09:01:06;2.88;86.58
73509;SHT30;61750;55.036;73.312;2022-11-15T09:04:40;2.85;86.32
73509;SHT30;61750;55.036;73.312;2022-11-15T09:07:25;2.78;86.33
73509;SHT30;61750;55.036;73.312;2022-11-15T09:10:15;2.78;86.75
73509;SHT30;61750;55.036;73.312;2022-11-15T09:13:10;2.78;87.00
73509;SHT30;61750;55.036;73.312;2022-11-15T09:15:58;2.74;86.64
73509;SHT30;61750;55.036;73.312;2022-11-15T09:18:43;2.74;86.84
73509;SHT30;61750;55.036;73.312;2022-11-15T09:21:29;2.77;87.18
73509;SHT30;61750;55.036;73.312;2022-11-15T09:24:13;2.78;86.97
73509;SHT30;61750;55.036;73.312;2022-11-15T09:26:58;2.77;87.08
73509;SHT30;61750;55.036;73.312;2022-11-15T09:29:43;2.71;87.16
73509;SHT30;61750;55.036;73.312;2022-11-15T09:32:30;2.71;87.38
73509;SHT30;61750;55.036;73.312;2022-11-15T09:35:15;2.70;87.36
73509;SHT30;61750;55.036;73.312;2022-11-15T09:38:00;2.66;87.66
73509;SHT30;61750;55.036;73.312;2022-11-15T09:40:49;2.68;87.88
73509;SHT30;61750;55.036;73.312;2022-11-15T09:46:51;2.62;87.83
73509;SHT30;61750;55.036;73.312;2022-11-15T09:49:45;2.61;87.93
73509;SHT30;61750;55.036;73.312;2022-11-15T09:52:18;2.62;88.09
73509;SHT30;61750;55.036;73.312;2022-11-15T09:54:48;2.61;88.43
73509;SHT30;61750;55.036;73.312;2022-11-15T09:57:41;2.66;88.38
73509;SHT30;61750;55.036;73.312;2022-11-15T10:00:44;2.64;88.41
73509;SHT30;61750;55.036;73.312;2022-11-15T10:03:24;2.65;88.75
73509;SHT30;61750;55.036;73.312;2022-11-15T10:05:54;2.68;88.69
73509;SHT30;61750;55.036;73.312;2022-11-15T10:10:48;2.68;88.39
73509;SHT30;61750;55.036;73.312;2022-11-15T10:13:36;2.60;88.45
73509;SHT30;61750;55.036;73.312;2022-11-15T10:19:23;2.51;88.27
73509;SHT30;61750;55.036;73.312;2022-11-15T10:22:00;2.52;88.08
73509;SHT30;61750;55.036;73.312;2022-11-15T10:24:44;2.50;87.84
73509;SHT30;61750;55.036;73.312;2022-11-15T10:27:13;2.51;88.00
73509;SHT30;61750;55.036;73.312;2022-11-15T10:29:49;2.52;87.83
73509;SHT30;61750;55.036;73.312;2022-11-15T10:32:18;2.47;88.16
73509;SHT30;61750;55.036;73.312;2022-11-15T10:34:48;2.48;88.03
73509;SHT30;61750;55.036;73.312;2022-11-15T10:37:31;2.48;87.85
73509;SHT30;61750;55.036;73.312;2022-11-15T10:40:16;2.42;87.29
73509;SHT30;61750;55.036;73.312;2022-11-15T10:42:43;2.44;87.19
73509;SHT30;61750;55.036;73.312;2022-11-15T10:45:30;2.42;86.66
73509;SHT30;61750;55.036;73.312;2022-11-15T10:50:45;2.36;86.46
73509;SHT30;61750;55.036;73.312;2022-11-15T10:55:56;2.34;86.53
73509;SHT30;61750;55.036;73.312;2022-11-15T10:58:50;2.33;86.70
73509;SHT30;61750;55.036;73.312;2022-11-15T11:01:19;2.33;87.06
73509;SHT30;61750;55.036;73.312;2022-11-15T11:04:02;2.24;86.90
73509;SHT30;61750;55.036;73.312;2022-11-15T11:06:29;2.20;86.87
73509;SHT30;61750;55.036;73.312;2022-11-15T11:09:00;2.27;87.06
73509;SHT30;61750;55.036;73.312;2022-11-15T11:11:46;2.33;87.09
73509;SHT30;61750;55.036;73.312;2022-11-15T11:14:38;2.34;86.70
73509;SHT30;61750;55.036;73.312;2022-11-15T11:17:27;2.37;87.06
73509;SHT30;61750;55.036;73.312;2022-11-15T11:31:43;2.37;85.53
73509;SHT30;61750;55.036;73.312;2022-11-15T11:50:28;2.36;85.37
73509;SHT30;61750;55.036;73.312;2022-11-15T11:55:51;2.41;85.56
73509;SHT30;61750;55.036;73.312;2022-11-15T12:00:59;2.45;85.52
73509;SHT30;61750;55.036;73.312;2022-11-15T12:03:42;2.47;85.31
73509;SHT30;61750;55.036;73.312;2022-11-15T12:06:31;2.50;85.27
73509;SHT30;61750;55.036;73.312;2022-11-15T12:11:32;2.50;85.66
73509;SHT30;61750;55.036;73.312;2022-11-15T12:15:02;2.50;85.84
73509;SHT30;61750;55.036;73.312;2022-11-15T12:17:30;2.50;86.08
73509;SHT30;61750;55.036;73.312;2022-11-15T12:20:02;2.50;86.27
73509;SHT30;61750;55.036;73.312;2022-11-15T12:25:57;2.57;86.15
73509;SHT30;61750;55.036;73.312;2022-11-15T12:28:34;2.55;86.16
73509;SHT30;61750;55.036;73.312;2022-11-15T12:31:44;2.54;86.31
73509;SHT30;61750;55.036;73.312;2022-11-15T12:34:42;2.54;86.35
73509;SHT30;61750;55.036;73.312;2022-11-15T12:45:39;2.55;86.67
73509;SHT30;61750;55.036;73.312;2022-11-15T13:07:00;2.44;86.95
73509;SHT30;61750;55.036;73.312;2022-11-15T13:22:45;2.45;86.01
73509;SHT30;61750;55.036;73.312;2022-11-15T13:30:54;2.33;86.54
73509;SHT30;61750;55.036;73.312;2022-11-15T13:33:24;2.31;86.71
73509;SHT30;61750;55.036;73.312;2022-11-15T13:35:56;2.24;86.82
73509;SHT30;61750;55.036;73.312;2022-11-15T13:38:31;2.24;87.05
73509;SHT30;61750;55.036;73.312;2022-11-15T13:40:58;2.21;87.02
73509;SHT30;61750;55.036;73.312;2022-11-15T13:43:36;2.16;86.89
73509;SHT30;61750;55.036;73.312;2022-11-15T13:46:12;2.10;87.04
73509;SHT30;61750;55.036;73.312;2022-11-15T13:48:40;2.05;87.20
73509;SHT30;61750;55.036;73.312;2022-11-15T13:54:27;2.06;87.42
73509;SHT30;61750;55.036;73.312;2022-11-15T13:57:10;2.07;87.44
73509;SHT30;61750;55.036;73.312;2022-11-15T13:59:50;2.02;87.18
73509;SHT30;61750;55.036;73.312;2022-11-15T14:02:31;2.05;87.26
73509;SHT30;61750;55.036;73.312;2022-11-15T14:05:19;2.09;86.84
73509;SHT30;61750;55.036;73.312;2022-11-15T14:08:03;2.10;86.43
73509;SHT30;61750;55.036;73.312;2022-11-15T14:10:36;2.10;86.01
73509;SHT30;61750;55.036;73.312;2022-11-15T14:13:09;1.95;85.96
73509;SHT30;61750;55.036;73.312;2022-11-15T14:15:38;1.85;86.49
73509;SHT30;61750;55.036;73.312;2022-11-15T14:18:05;1.85;86.97
73509;SHT30;61750;55.036;73.312;2022-11-15T14:20:36;1.86;86.91
73509;SHT30;61750;55.036;73.312;2022-11-15T14:23:06;1.87;86.72
73509;SHT30;61750;55.036;73.312;2022-11-15T14:25:53;1.83;86.81
73509;SHT30;61750;55.036;73.312;2022-11-15T14:28:33;1.85;86.65
73509;SHT30;61750;55.036;73.312;2022-11-15T14:31:10;1.90;86.63
73509;SHT30;61750;55.036;73.312;2022-11-15T14:33:42;1.90;86.39
73509;SHT30;61750;55.036;73.312;2022-11-15T14:36:16;1.90;86.39
73509;SHT30;61750;55.036;73.312;2022-11-15T14:38:43;1.86;85.53
73509;SHT30;61750;55.036;73.312;2022-11-15T14:41:21;1.80;85.55
73509;SHT30;61750;55.036;73.312;2022-11-15T14:43:49;1.83;85.68
73509;SHT30;61750;55.036;73.312;2022-11-15T14:46:15;1.80;85.49
73509;SHT30;61750;55.036;73.312;2022-11-15T14:48:41;1.73;86.11
73509;SHT30;61750;55.036;73.312;2022-11-15T14:51:15;1.72;86.29
73509;SHT30;61750;55.036;73.312;2022-11-15T14:53:42;1.65;86.59
73509;SHT30;61750;55.036;73.312;2022-11-15T14:56:08;1.56;86.75
73509;SHT30;61750;55.036;73.312;2022-11-15T14:58:45;1.45;87.08
73509;SHT30;61750;55.036;73.312;2022-11-15T15:01:20;1.44;87.13
73509;SHT30;61750;55.036;73.312;2022-11-15T15:03:47;1.45;87.00
73509;SHT30;61750;55.036;73.312;2022-11-15T15:06:23;1.39;86.70
73509;SHT30;61750;55.036;73.312;2022-11-15T15:08:49;1.28;86.77
73509;SHT30;61750;55.036;73.312;2022-11-15T15:11:23;1.21;87.10
73509;SHT30;61750;55.036;73.312;2022-11-15T15:14:37;1.18;87.11
73509;SHT30;61750;55.036;73.312;2022-11-15T15:17:09;1.18;86.84
73509;SHT30;61750;55.036;73.312;2022-11-15T15:19:40;1.17;86.66
73509;SHT30;61750;55.036;73.312;2022-11-15T15:22:17;1.21;86.72
73509;SHT30;61750;55.036;73.312;2022-11-15T15:24:53;1.14;86.59
73509;SHT30;61750;55.036;73.312;2022-11-15T15:27:19;1.12;86.70
73509;SHT30;61750;55.036;73.312;2022-11-15T15:29:45;1.04;86.28
73509;SHT30;61750;55.036;73.312;2022-11-15T15:32:17;0.92;86.10
73509;SHT30;61750;55.036;73.312;2022-11-15T15:34:53;0.83;86.44
73509;SHT30;61750;55.036;73.312;2022-11-15T15:37:24;0.85;86.90
73509;SHT30;61750;55.036;73.312;2022-11-15T15:39:52;0.81;86.82
73509;SHT30;61750;55.036;73.312;2022-11-15T15:42:19;0.84;86.66
73509;SHT30;61750;55.036;73.312;2022-11-15T15:44:55;0.74;86.09
73509;SHT30;61750;55.036;73.312;2022-11-15T15:47:32;0.74;85.77
73509;SHT30;61750;55.036;73.312;2022-11-15T15:50:08;0.78;85.81
73509;SHT30;61750;55.036;73.312;2022-11-15T15:52:43;0.78;85.43
73509;SHT30;61750;55.036;73.312;2022-11-15T15:55:09;0.76;85.02
73509;SHT30;61750;55.036;73.312;2022-11-15T15:57:40;0.71;84.44
73509;SHT30;61750;55.036;73.312;2022-11-15T16:00:08;0.61;84.18
73509;SHT30;61750;55.036;73.312;2022-11-15T16:02:52;0.58;84.05
73509;SHT30;61750;55.036;73.312;2022-11-15T16:05:28;0.56;84.23
73509;SHT30;61750;55.036;73.312;2022-11-15T16:08:00;0.50;84.11
73509;SHT30;61750;55.036;73.312;2022-11-15T16:10:36;0.47;83.99
73509;SHT30;61750;55.036;73.312;2022-11-15T16:13:03;0.42;84.22
73509;SHT30;61750;55.036;73.312;2022-11-15T16:15:35;0.35;84.32
73509;SHT30;61750;55.036;73.312;2022-11-15T16:18:02;0.33;84.42
73509;SHT30;61750;55.036;73.312;2022-11-15T16:23:02;0.29;84.02
73509;SHT30;61750;55.036;73.312;2022-11-15T16:25:28;0.17;83.50
73509;SHT30;61750;55.036;73.312;2022-11-15T16:27:54;0.15;83.88
73509;SHT30;61750;55.036;73.312;2022-11-15T16:30:22;0.09;83.44
73509;SHT30;61750;55.036;73.312;2022-11-15T16:32:55;0.05;84.08
73509;SHT30;61750;55.036;73.312;2022-11-15T16:35:21;0.02;83.59
73509;SHT30;61750;55.036;73.312;2022-11-15T16:37:48;-0.02;83.84
73509;SHT30;61750;55.036;73.312;2022-11-15T16:40:46;-0.01;83.93
73509;SHT30;61750;55.036;73.312;2022-11-15T16:43:13;-0.02;83.84
73509;SHT30;61750;55.036;73.312;2022-11-15T16:45:39;-0.07;84.21
73509;SHT30;61750;55.036;73.312;2022-11-15T16:48:05;-0.09;83.89
73509;SHT30;61750;55.036;73.312;2022-11-15T16:50:33;-0.17;83.90
73509;SHT30;61750;55.036;73.312;2022-11-15T16:53:06;-0.22;84.04
73509;SHT30;61750;55.036;73.312;2022-11-15T16:55:32;-0.22;84.15
73509;SHT30;61750;55.036;73.312;2022-11-15T16:57:58;-0.26;84.08
73509;SHT30;61750;55.036;73.312;2022-11-15T17:00:26;-0.26;84.60
73509;SHT30;61750;55.036;73.312;2022-11-15T17:02:52;-0.35;84.47
73509;SHT30;61750;55.036;73.312;2022-11-15T17:05:28;-0.36;84.16
73509;SHT30;61750;55.036;73.312;2022-11-15T17:07:55;-0.35;83.81
73509;SHT30;61750;55.036;73.312;2022-11-15T17:10:23;-0.35;83.38
73509;SHT30;61750;55.036;73.312;2022-11-15T17:13:00;-0.38;83.37
73509;SHT30;61750;55.036;73.312;2022-11-15T17:15:26;-0.42;82.86
73509;SHT30;61750;55.036;73.312;2022-11-15T17:17:53;-0.42;83.25
73509;SHT30;61750;55.036;73.312;2022-11-15T17:20:22;-0.46;82.71
73509;SHT30;61750;55.036;73.312;2022-11-15T17:22:49;-0.53;83.02
73509;SHT30;61750;55.036;73.312;2022-11-15T17:25:20;-0.63;82.95
73509;SHT30;61750;55.036;73.312;2022-11-15T17:27:46;-0.66;83.05
73509;SHT30;61750;55.036;73.312;2022-11-15T17:30:18;-0.69;82.75
73509;SHT30;61750;55.036;73.312;2022-11-15T17:32:49;-0.76;82.54
73509;SHT30;61750;55.036;73.312;2022-11-15T17:35:20;-0.87;82.34
73509;SHT30;61750;55.036;73.312;2022-11-15T17:37:47;-0.87;82.69
73509;SHT30;61750;55.036;73.312;2022-11-15T17:40:22;-0.93;82.32
73509;SHT30;61750;55.036;73.312;2022-11-15T17:42:50;-0.93;82.26
73509;SHT30;61750;55.036;73.312;2022-11-15T17:45:16;-0.87;82.74
73509;SHT30;61750;55.036;73.312;2022-11-15T17:47:42;-0.84;82.24
73509;SHT30;61750;55.036;73.312;2022-11-15T17:50:13;-0.79;82.13
73509;SHT30;61750;55.036;73.312;2022-11-15T17:52:45;-0.74;82.41
73509;SHT30;61750;55.036;73.312;2022-11-15T17:55:11;-0.69;81.86
73509;SHT30;61750;55.036;73.312;2022-11-15T17:57:47;-0.68;81.20
73509;SHT30;61750;55.036;73.312;2022-11-15T18:00:14;-0.59;80.82
73509;SHT30;61750;55.036;73.312;2022-11-15T18:02:45;-0.62;80.90
73509;SHT30;61750;55.036;73.312;2022-11-15T18:05:17;-0.72;80.38
73509;SHT30;61750;55.036;73.312;2022-11-15T18:07:43;-0.72;80.71
73509;SHT30;61750;55.036;73.312;2022-11-15T18:10:19;-0.68;80.86
73509;SHT30;61750;55.036;73.312;2022-11-15T18:12:55;-0.72;80.93
73509;SHT30;61750;55.036;73.312;2022-11-15T18:15:22;-0.72;81.43
73509;SHT30;61750;55.036;73.312;2022-11-15T18:17:48;-0.77;81.26
73509;SHT30;61750;55.036;73.312;2022-11-15T18:20:14;-0.80;81.71
73509;SHT30;61750;55.036;73.312;2022-11-15T18:22:41;-0.86;81.75
73509;SHT30;61750;55.036;73.312;2022-11-15T18:25:07;-0.87;81.91
73509;SHT30;61750;55.036;73.312;2022-11-15T18:27:34;-0.80;82.14
73509;SHT30;61750;55.036;73.312;2022-11-15T18:30:00;-0.79;81.80
73509;SHT30;61750;55.036;73.312;2022-11-15T18:32:26;-0.77;81.79
73509;SHT30;61750;55.036;73.312;2022-11-15T18:34:52;-0.76;81.96
73509;SHT30;61750;55.036;73.312;2022-11-15T18:37:19;-0.77;81.93
73509;SHT30;61750;55.036;73.312;2022-11-15T18:39:45;-0.84;82.20
73509;SHT30;61750;55.036;73.312;2022-11-15T18:42:11;-0.82;82.19
73509;SHT30;61750;55.036;73.312;2022-11-15T18:44:37;-0.86;82.07
73509;SHT30;61750;55.036;73.312;2022-11-15T18:47:04;-0.89;82.50
73509;SHT30;61750;55.036;73.312;2022-11-15T18:49:37;-0.82;82.56
73509;SHT30;61750;55.036;73.312;2022-11-15T18:52:04;-0.76;82.51
73509;SHT30;61750;55.036;73.312;2022-11-15T18:54:30;-0.80;82.33
73509;SHT30;61750;55.036;73.312;2022-11-15T18:56:56;-0.92;82.14
73509;SHT30;61750;55.036;73.312;2022-11-15T18:59:37;-1.00;82.74
73509;SHT30;61750;55.036;73.312;2022-11-15T19:02:03;-1.07;82.35
73509;SHT30;61750;55.036;73.312;2022-11-15T19:04:37;-1.03;82.74
73509;SHT30;61750;55.036;73.312;2022-11-15T19:07:04;-0.96;82.96
73509;SHT30;61750;55.036;73.312;2022-11-15T19:09:37;-0.92;82.34
73509;SHT30;61750;55.036;73.312;2022-11-15T19:12:04;-1.01;82.52
73509;SHT30;61750;55.036;73.312;2022-11-15T19:14:37;-1.03;82.37
73509;SHT30;61750;55.036;73.312;2022-11-15T19:17:03;-1.07;82.35
73509;SHT30;61750;55.036;73.312;2022-11-15T19:19:37;-1.03;82.44
73509;SHT30;61750;55.036;73.312;2022-11-15T19:22:03;-1.04;82.02
73509;SHT30;61750;55.036;73.312;2022-11-15T19:24:31;-1.14;81.30
73509;SHT30;61750;55.036;73.312;2022-11-15T19:26:57;-1.15;80.74
73509;SHT30;61750;55.036;73.312;2022-11-15T19:29:37;-1.17;80.32
73509;SHT30;61750;55.036;73.312;2022-11-15T19:32:05;-1.23;80.81
73509;SHT30;61750;55.036;73.312;2022-11-15T19:34:37;-1.25;80.86
73509;SHT30;61750;55.036;73.312;2022-11-15T19:37:06;-1.25;81.46
73509;SHT30;61750;55.036;73.312;2022-11-15T19:39:37;-1.20;81.25
73509;SHT30;61750;55.036;73.312;2022-11-15T19:42:03;-1.27;81.64
73509;SHT30;61750;55.036;73.312;2022-11-15T19:44:37;-1.27;81.81
73509;SHT30;61750;55.036;73.312;2022-11-15T19:47:03;-1.25;82.27
73509;SHT30;61750;55.036;73.312;2022-11-15T19:49:37;-1.24;82.21
73509;SHT30;61750;55.036;73.312;2022-11-15T19:52:03;-1.27;81.23
73509;SHT30;61750;55.036;73.312;2022-11-15T19:54:30;-1.34;79.73
73509;SHT30;61750;55.036;73.312;2022-11-15T19:56:56;-1.34;80.00
73509;SHT30;61750;55.036;73.312;2022-11-15T19:59:37;-1.33;79.47
73509;SHT30;61750;55.036;73.312;2022-11-15T20:02:04;-1.43;78.01
73509;SHT30;61750;55.036;73.312;2022-11-15T20:04:37;-1.54;77.83
73509;SHT30;61750;55.036;73.312;2022-11-15T20:07:04;-1.54;77.52
73509;SHT30;61750;55.036;73.312;2022-11-15T20:09:37;-1.61;77.66
73509;SHT30;61750;55.036;73.312;2022-11-15T20:12:04;-1.57;78.23
73509;SHT30;61750;55.036;73.312;2022-11-15T20:14:37;-1.54;79.00
73509;SHT30;61750;55.036;73.312;2022-11-15T20:17:04;-1.51;79.54
73509;SHT30;61750;55.036;73.312;2022-11-15T20:19:37;-1.59;79.76
73509;SHT30;61750;55.036;73.312;2022-11-15T20:22:03;-1.61;80.26
73509;SHT30;61750;55.036;73.312;2022-11-15T20:24:30;-1.67;81.04
73509;SHT30;61750;55.036;73.312;2022-11-15T20:26:56;-1.69;81.50
73509;SHT30;61750;55.036;73.312;2022-11-15T20:29:37;-1.68;81.64
73509;SHT30;61750;55.036;73.312;2022-11-15T20:32:03;-1.72;80.88
73509;SHT30;61750;55.036;73.312;2022-11-15T20:34:37;-1.82;80.99
73509;SHT30;61750;55.036;73.312;2022-11-15T20:37:03;-1.83;80.80
73509;SHT30;61750;55.036;73.312;2022-11-15T20:39:37;-1.85;80.53
73509;SHT30;61750;55.036;73.312;2022-11-15T20:42:04;-1.91;80.36
73509;SHT30;61750;55.036;73.312;2022-11-15T20:44:37;-1.92;80.90
73509;SHT30;61750;55.036;73.312;2022-11-15T20:47:03;-1.92;80.85
73509;SHT30;61750;55.036;73.312;2022-11-15T20:49:37;-1.99;80.96
73509;SHT30;61750;55.036;73.312;2022-11-15T20:52:03;-1.96;81.26
73509;SHT30;61750;55.036;73.312;2022-11-15T20:54:34;-1.99;81.17
73509;SHT30;61750;55.036;73.312;2022-11-15T20:57:00;-1.93;81.24
73509;SHT30;61750;55.036;73.312;2022-11-15T20:59:37;-1.89;80.82
73509;SHT30;61750;55.036;73.312;2022-11-15T21:02:03;-1.88;80.36
73509;SHT30;61750;55.036;73.312;2022-11-15T21:04:37;-1.91;79.91
73509;SHT30;61750;55.036;73.312;2022-11-15T21:07:03;-1.89;80.35
73509;SHT30;61750;55.036;73.312;2022-11-15T21:09:40;-1.96;80.40
73509;SHT30;61750;55.036;73.312;2022-11-15T21:12:25;-1.99;80.94